Time;durP1;ratioP1;P1;durP2;ratioP2;P2;SDS_P1;SDS_P2;PMS_P1;PMS_P2;Temp;Humidity;BMP_temperature;BMP_pressure;BME280_temperature;BME280_humidity;BME280_pressure;Samples;Min_cycle;Max_cycle;Signal;HPM_P1;HPM_P2
2023/04/25 00:00:21;;;;;;;19.27;13.60;;;;;;;11.64;65.09;99008.43;1780544;80;27496;-58
2023/04/25 00:02:49;;;;;;;20.82;13.48;;;;;;;11.62;64.75;99003.94;1775554;79;25583;-58
2023/04/25 00:05:15;;;;;;;21.68;13.95;;;;;;;11.62;65.11;99007.22;1779629;79;25445;-57
2023/04/25 00:07:43;;;;;;;20.32;13.48;;;;;;;11.59;65.21;99007.33;1779579;80;25547;-58
2023/04/25 00:10:12;;;;;;;21.65;14.43;;;;;;;11.57;65.32;99005.54;1776997;79;25405;-58
2023/04/25 00:12:44;;;;;;;16.62;13.48;;;;;;;11.54;65.08;98998.11;1771860;80;27481;-58
2023/04/25 00:15:13;;;;;;;20.48;14.18;;;;;;;11.51;65.10;99007.72;1774780;80;25548;-58
2023/04/25 00:17:39;;;;;;;18.40;14.20;;;;;;;11.48;65.54;99009.77;1771360;80;25384;-58
2023/04/25 00:20:10;;;;;;;18.15;13.62;;;;;;;11.44;65.97;99004.83;1773125;80;25520;-57
2023/04/25 00:22:38;;;;;;;23.12;15.28;;;;;;;11.40;66.07;99006.06;1775614;79;25407;-57
2023/04/25 00:25:08;;;;;;;18.92;14.38;;;;;;;11.34;66.59;99008.81;1771280;80;27540;-58
2023/04/25 00:27:35;;;;;;;20.75;14.65;;;;;;;11.33;66.86;99011.87;1774444;80;25377;-56
2023/04/25 00:30:08;;;;;;;20.00;14.03;;;;;;;11.29;67.20;99015.02;1771541;80;25365;-57
2023/04/25 00:32:34;;;;;;;20.72;15.13;;;;;;;11.24;66.98;99019.33;1771100;80;25552;-56
2023/04/25 00:35:06;;;;;;;24.45;14.30;;;;;;;11.16;67.06;99020.48;1771106;81;25610;-57
2023/04/25 00:37:32;;;;;;;19.62;15.90;;;;;;;11.12;67.51;99016.91;1774334;80;27441;-57
2023/04/25 00:40:00;;;;;;;23.73;15.50;;;;;;;11.04;68.13;99021.88;1769358;80;25754;-57
2023/04/25 00:42:28;;;;;;;21.75;15.58;;;;;;;11.00;68.14;99021.00;1769987;80;25532;-58
2023/04/25 00:44:58;;;;;;;21.65;15.45;;;;;;;10.95;68.46;99019.89;1774578;80;25484;-58
2023/04/25 00:47:29;;;;;;;32.33;16.75;;;;;;;10.91;68.33;99018.41;1762652;80;25463;-58
2023/04/25 00:49:58;;;;;;;20.00;15.13;;;;;;;10.88;68.74;99019.12;1772081;80;27267;-58
2023/04/25 00:52:27;;;;;;;24.18;16.23;;;;;;;10.83;69.18;99021.48;1771081;80;25374;-58
2023/04/25 00:54:57;;;;;;;22.58;15.83;;;;;;;10.77;69.10;99020.13;1772403;80;25425;-57
2023/04/25 00:57:23;;;;;;;26.75;17.30;;;;;;;10.71;69.41;99021.52;1773674;79;25529;-57
2023/04/25 00:59:53;;;;;;;22.70;17.12;;;;;;;10.65;69.92;99013.40;1773523;80;25405;-57
2023/04/25 01:02:22;;;;;;;21.65;16.07;;;;;;;10.62;70.01;99014.08;1773526;79;27419;-57
2023/04/25 01:04:51;;;;;;;23.00;17.50;;;;;;;10.59;69.89;99013.40;1773417;80;26189;-57
2023/04/25 01:07:20;;;;;;;25.37;16.32;;;;;;;10.55;70.01;99008.45;1773510;80;25367;-57
2023/04/25 01:09:48;;;;;;;23.12;16.70;;;;;;;10.52;70.48;99016.70;1773588;79;25589;-58
2023/04/25 01:12:15;;;;;;;25.43;17.05;;;;;;;10.49;70.34;99011.16;1773505;80;25445;-58
2023/04/25 01:14:41;;;;;;;24.87;16.67;;;;;;;10.45;70.37;99013.20;1773409;80;27525;-58
2023/04/25 01:17:11;;;;;;;21.15;15.85;;;;;;;10.43;70.80;99012.73;1773376;79;25359;-58
2023/04/25 01:19:41;;;;;;;22.37;16.15;;;;;;;10.40;71.17;99011.28;1773603;80;25618;-57
2023/04/25 01:22:10;;;;;;;23.47;17.57;;;;;;;10.35;70.60;99012.31;1773464;79;26198;-58
2023/04/25 01:24:40;;;;;;;23.62;16.90;;;;;;;10.31;71.45;99018.70;1773617;80;25427;-55
2023/04/25 01:27:10;;;;;;;;;;;;;;;10.28;71.59;99016.09;1776189;79;28396;-59
2023/04/25 01:29:40;;;;;;;21.10;15.23;;;;;;;10.24;71.47;99019.25;1773458;80;25592;-58
2023/04/25 01:32:08;;;;;;;;;;;;;;;10.21;71.70;99018.57;1776163;80;25581;-59
2023/04/25 01:34:35;;;;;;;22.13;16.37;;;;;;;10.17;71.93;99014.41;1773709;80;25625;-58
2023/04/25 01:37:04;;;;;;;21.57;15.72;;;;;;;10.12;72.03;99010.58;1773692;79;25379;-58
2023/04/25 01:39:34;;;;;;;;;;;;;;;10.08;72.21;99006.98;1776327;79;27435;-58
2023/04/25 01:42:01;;;;;;;24.43;17.00;;;;;;;10.06;72.45;99010.02;1773809;80;25528;-58
2023/04/25 01:44:31;;;;;;;26.57;17.42;;;;;;;10.03;72.52;99004.50;1773709;79;25591;-58
2023/04/25 01:46:59;;;;;;;22.65;17.57;;;;;;;9.98;72.86;99006.08;1773666;79;25472;-57
2023/04/25 01:49:26;;;;;;;25.10;17.37;;;;;;;9.96;73.05;99006.41;1773668;79;25363;-58
2023/04/25 01:51:55;;;;;;;27.55;17.60;;;;;;;9.93;73.19;99005.72;1773566;80;27498;-56
2023/04/25 01:54:24;;;;;;;28.42;17.50;;;;;;;9.90;73.42;99003.11;1773179;79;25520;-57
2023/04/25 01:56:56;;;;;;;24.27;17.67;;;;;;;9.90;73.54;99005.03;1773935;80;32502;-56
2023/04/25 01:59:23;;;;;;;23.90;17.20;;;;;;;9.88;73.53;98997.84;1772233;79;25606;-58
2023/04/25 02:01:49;;;;;;;24.12;17.48;;;;;;;9.84;73.62;99005.83;1771192;80;25512;-58
2023/04/25 02:04:15;;;;;;;26.40;18.57;;;;;;;9.83;73.89;98999.41;1774686;80;27471;-58
2023/04/25 02:06:42;;;;;;;24.60;17.15;;;;;;;9.80;73.49;98995.45;1771790;80;25534;-58
2023/04/25 02:09:08;;;;;;;23.52;17.42;;;;;;;9.77;73.77;98993.41;1772206;80;25493;-58
2023/04/25 02:11:38;;;;;;;27.05;18.40;;;;;;;9.75;73.80;98989.48;1778827;79;25672;-58
2023/04/25 02:14:04;;;;;;;30.75;17.32;;;;;;;9.72;74.37;98994.44;1773193;79;25417;-58
2023/04/25 02:16:35;;;;;;;22.93;16.95;;;;;;;9.70;74.38;98991.83;1773023;80;29616;-57
2023/04/25 02:19:02;;;;;;;27.20;18.02;;;;;;;9.69;74.29;98986.22;1773001;80;25596;-54
2023/04/25 02:21:32;;;;;;;27.93;17.92;;;;;;;9.67;74.38;98989.25;1772246;80;25465;-57
2023/04/25 02:24:00;;;;;;;;;;;;;;;9.65;74.37;98983.94;1779146;79;25702;-58
2023/04/25 02:26:30;;;;;;;25.05;17.00;;;;;;;9.64;75.46;98987.21;1771830;80;25522;-58
2023/04/25 02:28:59;;;;;;;24.95;19.00;;;;;;;9.62;74.92;98985.41;1771158;81;27450;-55
2023/04/25 02:31:30;;;;;;;26.00;18.92;;;;;;;9.63;74.56;98984.27;1771063;80;25766;-58
2023/04/25 02:33:57;;;;;;;27.65;18.32;;;;;;;9.62;76.37;98992.16;1773452;80;25554;-56
2023/04/25 02:36:26;;;;;;;29.45;18.37;;;;;;;9.63;76.52;98989.67;1772511;80;25617;-56
2023/04/25 02:38:52;;;;;;;28.67;17.73;;;;;;;9.65;76.30;98985.30;1774637;80;25830;-58
2023/04/25 02:41:20;;;;;;;23.38;16.42;;;;;;;9.65;76.01;98979.36;1771911;80;28340;-58
2023/04/25 02:43:47;;;;;;;26.33;17.50;;;;;;;9.67;76.26;98978.45;1771738;80;25592;-56
2023/04/25 02:46:13;;;;;;;25.57;17.87;;;;;;;9.68;75.81;98993.52;1771794;79;25571;-58
2023/04/25 02:48:39;;;;;;;25.88;17.92;;;;;;;9.68;75.93;98994.86;1771816;80;26228;-59
2023/04/25 02:51:07;;;;;;;25.37;16.87;;;;;;;9.66;76.10;98994.41;1771297;80;25562;-57
2023/04/25 02:53:33;;;;;;;28.10;17.00;;;;;;;9.66;75.85;99003.08;1771816;80;27455;-58
2023/04/25 02:56:00;;;;;;;26.15;17.42;;;;;;;9.67;76.93;98990.60;1774463;79;25705;-58
2023/04/25 02:58:28;;;;;;;27.20;17.00;;;;;;;9.69;77.43;98997.02;1762710;80;25629;-58
2023/04/25 03:00:55;;;;;;;27.07;17.33;;;;;;;9.72;77.70;98997.14;1773406;79;25531;-58
2023/04/25 03:03:23;;;;;;;29.27;18.27;;;;;;;9.77;77.94;98994.77;1773065;80;25567;-58
2023/04/25 03:05:52;;;;;;;23.60;17.57;;;;;;;9.81;78.26;98994.91;1773484;80;27490;-58
2023/04/25 03:08:19;;;;;;;27.62;17.35;;;;;;;9.86;79.09;98991.42;1772706;80;25538;-58
2023/04/25 03:10:50;;;;;;;25.92;16.95;;;;;;;9.90;78.95;98995.02;1771503;80;25599;-58
2023/04/25 03:13:19;;;;;;;23.12;15.40;;;;;;;9.96;79.16;98996.95;1773307;80;25554;-58
2023/04/25 03:15:45;;;;;;;23.52;16.15;;;;;;;10.00;78.94;98995.14;1771458;80;25694;-59
2023/04/25 03:18:11;;;;;;;25.92;16.82;;;;;;;10.06;79.32;98987.59;1771136;80;27583;-58
2023/04/25 03:20:41;;;;;;;28.75;17.02;;;;;;;10.11;79.60;98984.67;1773179;80;25586;-58
2023/04/25 03:23:10;;;;;;;26.00;16.73;;;;;;;10.16;79.24;98989.07;1763491;80;25398;-58
2023/04/25 03:25:37;;;;;;;28.42;16.27;;;;;;;10.21;78.95;98990.98;1772469;80;26309;-58
2023/04/25 03:28:03;;;;;;;29.12;16.62;;;;;;;10.26;79.45;98994.80;1771183;80;25566;-57
2023/04/25 03:30:33;;;;;;;23.90;15.55;;;;;;;10.32;79.59;98992.71;1771923;80;27493;-58
2023/04/25 03:33:02;;;;;;;22.60;15.70;;;;;;;10.36;79.54;98994.95;1771150;80;25540;-58
2023/04/25 03:35:29;;;;;;;;;;;;;;;10.40;80.13;98993.70;1773833;81;25378;-57
2023/04/25 03:37:55;;;;;;;21.77;14.45;;;;;;;10.46;80.37;98999.90;1771045;81;25525;-58
2023/04/25 03:40:21;;;;;;;22.02;14.68;;;;;;;10.49;80.28;98997.64;1771159;80;25378;-59
2023/04/25 03:42:48;;;;;;;21.57;15.43;;;;;;;10.53;80.42;98996.63;1771286;80;27440;-57
2023/04/25 03:45:17;;;;;;;19.37;13.95;;;;;;;10.57;80.22;98993.48;1773406;80;25538;-56
2023/04/25 03:47:46;;;;;;;21.50;13.78;;;;;;;10.63;80.33;99006.20;1773165;80;25397;-60
2023/04/25 03:50:15;;;;;;;19.77;13.88;;;;;;;10.68;80.37;98998.42;1772977;80;25603;-59
2023/04/25 03:52:43;;;;;;;19.30;13.38;;;;;;;10.75;80.66;99008.09;1773652;80;32350;-57
2023/04/25 03:55:12;;;;;;;20.20;13.55;;;;;;;10.80;81.10;99014.05;1772718;80;27528;-59
2023/04/25 03:57:41;;;;;;;19.30;13.18;;;;;;;10.86;81.08;99009.18;1773740;80;25581;-59
2023/04/25 04:00:12;;;;;;;16.73;11.57;;;;;;;10.92;81.21;99008.40;1775533;80;25509;-58
2023/04/25 04:02:39;;;;;;;17.07;11.83;;;;;;;10.96;80.85;99011.98;1771763;80;25656;-58
2023/04/25 04:05:10;;;;;;;18.37;12.05;;;;;;;11.01;81.09;99018.50;1772824;80;25433;-57
2023/04/25 04:07:39;;;;;;;18.73;12.47;;;;;;;11.05;81.07;99018.61;1774680;80;28243;-59
2023/04/25 04:10:09;;;;;;;17.48;11.55;;;;;;;11.12;81.17;99025.02;1771273;80;25533;-59
2023/04/25 04:12:38;;;;;;;18.45;12.78;;;;;;;11.18;81.30;99022.28;1771180;81;25433;-59
2023/04/25 04:15:10;;;;;;;17.12;13.00;;;;;;;11.24;81.33;99022.03;1774824;80;25576;-59
2023/04/25 04:17:41;;;;;;;15.00;11.25;;;;;;;11.28;81.34;99029.70;1771431;80;25377;-57
2023/04/25 04:20:11;;;;;;;17.30;11.43;;;;;;;11.31;81.16;99024.39;1774351;80;27630;-58
2023/04/25 04:22:37;;;;;;;20.20;12.30;;;;;;;11.35;81.14;99027.97;1771701;80;25441;-58
2023/04/25 04:25:07;;;;;;;17.65;11.65;;;;;;;11.36;80.92;99021.44;1779652;80;25555;-58
2023/04/25 04:27:34;;;;;;;16.02;10.78;;;;;;;11.40;80.70;99026.37;1779421;80;25480;-57
2023/04/25 04:30:01;;;;;;;19.42;12.85;;;;;;;11.44;80.95;99031.91;1760025;80;25544;-58
2023/04/25 04:32:30;;;;;;;18.10;11.73;;;;;;;11.48;80.82;99038.77;1777446;79;29614;-57
2023/04/25 04:34:57;;;;;;;19.10;11.75;;;;;;;11.48;80.66;99042.25;1774984;79;25991;-58
2023/04/25 04:37:29;;;;;;;19.57;12.15;;;;;;;11.50;80.44;99038.63;1778766;79;25569;-58
2023/04/25 04:39:55;;;;;;;;;;;;;;;11.53;80.40;99039.88;1775477;79;25529;-57
2023/04/25 04:42:25;;;;;;;18.07;11.22;;;;;;;11.57;80.66;99037.46;1774471;80;25428;-57
2023/04/25 04:44:54;;;;;;;16.62;12.73;;;;;;;11.61;80.62;99041.62;1774001;80;27477;-58
2023/04/25 04:47:23;;;;;;;16.15;11.85;;;;;;;11.61;80.61;99045.68;1768607;79;25542;-58
2023/04/25 04:49:49;;;;;;;19.00;11.93;;;;;;;11.63;80.38;99044.80;1769213;80;25379;-57
2023/04/25 04:52:15;;;;;;;16.62;11.28;;;;;;;11.67;80.36;99048.95;1770343;80;27583;-59
2023/04/25 04:54:42;;;;;;;19.17;12.28;;;;;;;11.70;80.47;99044.97;1772931;80;25543;-57
2023/04/25 04:57:08;;;;;;;17.32;12.03;;;;;;;11.73;80.23;99048.35;1771647;80;27488;-57
2023/04/25 04:59:35;;;;;;;19.67;12.85;;;;;;;11.73;80.04;99045.64;1771060;80;26027;-56
2023/04/25 05:02:02;;;;;;;16.70;11.55;;;;;;;11.74;80.02;99048.55;1771062;80;25437;-53
2023/04/25 05:04:29;;;;;;;26.57;13.48;;;;;;;11.76;80.01;99050.92;1771979;80;25418;-58
2023/04/25 05:06:55;;;;;;;20.05;13.45;;;;;;;11.77;80.09;99050.58;1772064;80;25377;-57
2023/04/25 05:09:25;;;;;;;25.02;12.65;;;;;;;11.77;79.84;99047.86;1762712;80;27577;-57
2023/04/25 05:11:49;;;;;;;19.82;14.18;;;;;;;11.84;80.07;99055.39;1771087;80;25759;-58
2023/04/25 05:14:16;;;;;;;21.60;14.40;;;;;;;11.87;80.04;99042.52;1772449;80;25362;-56
2023/04/25 05:16:43;;;;;;;18.17;13.28;;;;;;;11.94;79.85;99048.14;1773011;80;27613;-58
2023/04/25 05:19:10;;;;;;;20.23;13.62;;;;;;;11.97;79.68;99046.67;1772319;80;25390;-57
2023/04/25 05:21:36;;;;;;;19.10;13.83;;;;;;;12.03;79.72;99035.00;1771257;81;27499;-58
2023/04/25 05:24:04;;;;;;;23.73;13.75;;;;;;;12.11;79.51;99040.81;1772186;80;25594;-58
2023/04/25 05:26:30;;;;;;;17.45;12.82;;;;;;;12.19;79.45;99037.70;1771244;81;25474;-57
2023/04/25 05:28:58;;;;;;;18.40;12.33;;;;;;;12.25;79.17;99042.50;1771227;80;26211;-58
2023/04/25 05:31:24;;;;;;;18.40;13.80;;;;;;;12.30;79.17;99034.11;1773327;80;25637;-56
2023/04/25 05:33:51;;;;;;;22.07;12.88;;;;;;;12.40;79.03;99037.44;1772212;80;27548;-57
2023/04/25 05:36:19;;;;;;;20.23;12.68;;;;;;;12.43;78.62;99042.95;1772138;80;25759;-57
2023/04/25 05:38:46;;;;;;;18.23;12.33;;;;;;;12.49;78.40;99048.87;1771426;80;26210;-58
2023/04/25 05:41:13;;;;;;;18.57;12.18;;;;;;;12.50;77.92;99054.53;1771651;79;25856;-58
2023/04/25 05:43:44;;;;;;;19.15;13.00;;;;;;;12.49;77.69;99054.30;1771107;81;25582;-58
2023/04/25 05:46:07;;;;;;;18.52;12.98;;;;;;;12.45;77.30;99054.80;1770695;80;27496;-58
2023/04/25 05:48:33;;;;;;;18.98;12.60;;;;;;;12.41;77.07;99057.98;1770987;80;25590;-58
2023/04/25 05:51:00;;;;;;;19.07;12.23;;;;;;;12.39;77.14;99055.62;1772019;80;25611;-58
2023/04/25 05:53:27;;;;;;;19.35;12.93;;;;;;;12.36;77.20;99059.05;1772176;80;25550;-58
2023/04/25 05:55:53;;;;;;;19.00;12.65;;;;;;;12.37;77.25;99053.05;1773140;80;25373;-58
2023/04/25 05:58:20;;;;;;;19.73;12.45;;;;;;;12.39;77.20;99061.62;1776575;80;27817;-58
2023/04/25 06:00:46;;;;;;;18.27;12.20;;;;;;;12.36;77.02;99056.34;1777435;80;25622;-58
2023/04/25 06:03:18;;;;;;;17.40;12.70;;;;;;;12.34;77.04;99055.88;1774814;80;25457;-56
2023/04/25 06:05:43;;;;;;;15.72;12.15;;;;;;;12.36;77.36;99046.85;1770373;80;25512;-58
2023/04/25 06:08:10;;;;;;;16.73;11.78;;;;;;;12.36;77.12;99060.95;1776815;80;25583;-56
2023/04/25 06:10:37;;;;;;;15.93;10.90;;;;;;;12.36;77.14;99055.53;1775349;80;28142;-58
2023/04/25 06:13:04;;;;;;;15.78;10.95;;;;;;;12.35;77.04;99053.98;1774541;80;25544;-57
2023/04/25 06:15:34;;;;;;;11.70;9.70;;;;;;;12.35;76.78;99058.05;1771797;80;25536;-57
2023/04/25 06:18:01;;;;;;;11.88;9.65;;;;;;;12.33;76.72;99056.46;1771169;80;25603;-57
2023/04/25 06:20:28;;;;;;;13.38;9.65;;;;;;;12.31;76.51;99064.16;1774264;80;25616;-58
2023/04/25 06:22:55;;;;;;;12.60;8.85;;;;;;;12.29;76.43;99062.92;1771960;80;27498;-58
2023/04/25 06:25:21;;;;;;;14.43;9.58;;;;;;;12.33;76.68;99066.53;1771887;80;25663;-57
2023/04/25 06:27:47;;;;;;;12.68;8.95;;;;;;;12.36;76.65;99066.38;1774889;80;25426;-57
2023/04/25 06:30:15;;;;;;;11.85;8.85;;;;;;;12.35;76.67;99073.73;1771234;81;25519;-57
2023/04/25 06:32:41;;;;;;;13.90;9.03;;;;;;;12.31;76.03;99068.81;1775299;80;25552;-58
2023/04/25 06:35:08;;;;;;;13.88;8.28;;;;;;;12.29;75.99;99070.51;1779899;80;27469;-58
2023/04/25 06:37:35;;;;;;;10.48;8.70;;;;;;;12.28;75.98;99075.70;1775912;79;25545;-58
2023/04/25 06:40:02;;;;;;;12.07;9.35;;;;;;;12.24;76.54;99076.20;1775041;80;25449;-58
2023/04/25 06:42:28;;;;;;;11.90;7.95;;;;;;;12.19;75.93;99078.36;1775174;80;25445;-57
2023/04/25 06:44:55;;;;;;;14.75;8.70;;;;;;;12.09;76.38;99090.53;1779541;79;25367;-58
2023/04/25 06:47:21;;;;;;;11.57;8.25;;;;;;;11.99;76.07;99106.72;1779147;80;29566;-58
2023/04/25 06:49:48;;;;;;;11.43;9.13;;;;;;;11.86;76.12;99113.30;1773128;80;25408;-56
2023/04/25 06:52:14;;;;;;;11.12;8.30;;;;;;;11.73;76.44;99107.94;1759455;80;26014;-57
2023/04/25 06:54:40;;;;;;;12.80;9.28;;;;;;;11.63;76.44;99092.73;1779598;80;25641;-55
2023/04/25 06:57:06;;;;;;;12.55;9.33;;;;;;;11.58;77.09;99085.66;1774824;79;25571;-53
2023/04/25 06:59:33;;;;;;;13.98;8.95;;;;;;;11.58;77.51;99084.31;1772409;80;27507;-56
2023/04/25 07:01:59;;;;;;;12.78;9.93;;;;;;;11.59;78.03;99084.52;1771960;80;25834;-53
2023/04/25 07:04:26;;;;;;;12.13;9.50;;;;;;;11.64;78.46;99091.04;1772748;80;25534;-57
2023/04/25 07:06:52;;;;;;;14.63;10.40;;;;;;;11.66;78.50;99092.05;1772024;80;25614;-52
2023/04/25 07:09:19;;;;;;;11.95;10.15;;;;;;;11.70;78.96;99097.02;1772657;80;25548;-55
2023/04/25 07:11:45;;;;;;;13.95;10.10;;;;;;;11.80;79.75;99099.77;1771713;80;27417;-59
2023/04/25 07:14:12;;;;;;;13.43;10.55;;;;;;;11.90;80.29;99100.08;1772394;80;25802;-54
2023/04/25 07:16:38;;;;;;;13.85;10.25;;;;;;;12.00;80.18;99100.72;1772820;80;25572;-55
2023/04/25 07:19:04;;;;;;;18.45;12.75;;;;;;;12.12;79.98;99106.06;1772355;80;27769;-56
2023/04/25 07:21:31;;;;;;;17.25;11.85;;;;;;;12.14;79.08;99098.40;1772227;80;25627;-56
2023/04/25 07:23:57;;;;;;;16.17;12.10;;;;;;;12.16;78.50;99101.55;1771706;80;27481;-54
2023/04/25 07:26:24;;;;;;;16.20;11.83;;;;;;;12.19;79.12;99101.40;1772718;80;25572;-56
2023/04/25 07:28:51;;;;;;;17.15;11.95;;;;;;;12.21;78.57;99099.93;1772089;79;25406;-55
2023/04/25 07:31:18;;;;;;;18.05;11.95;;;;;;;12.23;78.40;99098.23;1773169;79;25556;-55
2023/04/25 07:33:45;;;;;;;11.93;10.20;;;;;;;12.25;78.30;99095.38;1772629;80;25406;-56
2023/04/25 07:36:14;;;;;;;13.70;11.38;;;;;;;12.23;77.96;99090.88;1772158;79;27528;-54
2023/04/25 07:38:41;;;;;;;13.50;10.15;;;;;;;12.29;78.46;99102.23;1772636;80;25425;-56
2023/04/25 07:41:07;;;;;;;14.18;11.78;;;;;;;12.31;78.31;99101.34;1772042;80;25540;-56
2023/04/25 07:43:34;;;;;;;14.55;11.30;;;;;;;12.35;77.96;99105.50;1772928;80;25542;-57
2023/04/25 07:46:00;;;;;;;13.43;10.78;;;;;;;12.31;77.61;99099.98;1772024;80;25383;-53
2023/04/25 07:48:26;;;;;;;13.15;11.03;;;;;;;12.33;77.65;99106.63;1772001;80;29773;-58
2023/04/25 07:50:52;;;;;;;13.98;11.63;;;;;;;12.34;77.38;99107.40;1772302;80;25614;-57
2023/04/25 07:53:18;;;;;;;13.53;11.35;;;;;;;12.36;77.38;99110.57;1772597;79;25635;-56
2023/04/25 07:55:44;;;;;;;15.20;11.03;;;;;;;12.37;77.33;99114.06;1771619;80;26171;-53
2023/04/25 07:58:12;;;;;;;14.47;10.88;;;;;;;12.35;77.15;99113.05;1771997;79;25605;-57
2023/04/25 08:00:38;;;;;;;14.13;11.08;;;;;;;12.35;77.02;99117.12;1771973;80;27885;-57
2023/04/25 08:03:04;;;;;;;14.07;10.53;;;;;;;12.37;77.14;99114.84;1771601;80;25603;-57
2023/04/25 08:05:30;;;;;;;11.83;10.32;;;;;;;12.45;77.50;99117.95;1774699;79;25418;-56
2023/04/25 08:07:56;;;;;;;18.20;10.00;;;;;;;12.53;77.30;99116.19;1771281;80;25540;-57
2023/04/25 08:10:23;;;;;;;11.03;8.75;;;;;;;12.61;77.19;99121.23;1777572;80;25630;-56
2023/04/25 08:12:50;;;;;;;11.43;9.00;;;;;;;12.65;76.83;99118.83;1771541;80;28006;-52
2023/04/25 08:15:16;;;;;;;10.28;8.40;;;;;;;12.65;76.20;99121.54;1777472;80;25519;-51
2023/04/25 08:17:43;;;;;;;10.82;8.00;;;;;;;12.64;75.76;99125.96;1771459;80;25466;-53
2023/04/25 08:20:12;;;;;;;8.83;7.45;;;;;;;12.64;75.60;99132.74;1771115;80;25516;-52
2023/04/25 08:22:38;;;;;;;8.88;7.97;;;;;;;12.65;75.60;99132.39;1771172;80;25406;-53
2023/04/25 08:25:05;;;;;;;9.28;8.20;;;;;;;12.73;75.88;99132.56;1774261;80;28243;-53
2023/04/25 08:27:32;;;;;;;7.42;6.37;;;;;;;12.76;75.47;99123.72;1770101;79;25443;-52
2023/04/25 08:29:58;;;;;;;7.95;6.08;;;;;;;12.77;74.61;99127.99;1773340;79;25449;-51
2023/04/25 08:32:25;;;;;;;8.63;6.08;;;;;;;12.74;74.34;99128.14;1774114;80;25603;-54
2023/04/25 08:34:53;;;;;;;8.13;6.40;;;;;;;12.77;74.06;99126.09;1773616;80;25593;-50
2023/04/25 08:37:20;;;;;;;10.88;6.40;;;;;;;12.82;74.54;99129.89;1778949;80;27552;-51
2023/04/25 08:39:48;;;;;;;8.23;6.60;;;;;;;12.91;74.41;99135.13;1779495;80;25393;-51
2023/04/25 08:42:15;;;;;;;6.85;5.70;;;;;;;12.95;73.95;99134.63;1778979;80;25391;-53
2023/04/25 08:44:42;;;;;;;7.47;6.00;;;;;;;12.99;73.79;99136.86;1771901;80;25602;-51
2023/04/25 08:47:08;;;;;;;6.40;5.60;;;;;;;13.01;73.55;99131.87;1771144;80;25395;-51
2023/04/25 08:49:35;;;;;;;7.35;6.62;;;;;;;13.00;73.11;99133.00;1743450;81;28259;-52
2023/04/25 08:52:05;;;;;;;8.48;6.65;;;;;;;12.95;72.75;99140.05;1742772;82;25427;-51
2023/04/25 08:54:33;;;;;;;9.65;7.00;;;;;;;12.88;72.88;99145.32;1741425;82;25444;-51
2023/04/25 08:57:03;;;;;;;10.85;7.10;;;;;;;12.89;73.18;99148.27;1741198;81;25906;-51
2023/04/25 08:59:32;;;;;;;7.70;6.30;;;;;;;12.92;73.23;99148.11;1742932;81;25656;-51
2023/04/25 09:01:58;;;;;;;6.97;6.08;;;;;;;12.89;72.63;99150.98;1742963;81;27321;-50
2023/04/25 09:04:25;;;;;;;8.05;6.40;;;;;;;12.88;72.30;99152.11;1742743;82;25556;-57
2023/04/25 09:06:52;;;;;;;8.00;6.45;;;;;;;12.83;72.17;99163.23;1742874;82;25391;-54
2023/04/25 09:09:18;;;;;;;10.15;7.62;;;;;;;12.76;72.14;99156.28;1742916;81;25617;-52
2023/04/25 09:11:44;;;;;;;8.93;7.70;;;;;;;12.70;71.94;99162.52;1742885;82;25527;-53
2023/04/25 09:14:22;;;;;;;13.53;8.38;;;;;;;12.64;72.13;99163.94;1742834;82;27409;-51
2023/04/25 09:16:59;;;;;;;9.03;7.90;;;;;;;12.58;71.91;99168.03;1743107;81;25458;-50
2023/04/25 09:19:35;;;;;;;11.83;8.10;;;;;;;12.51;71.94;99170.00;1742845;82;25565;-51
2023/04/25 09:22:04;;;;;;;8.90;7.67;;;;;;;12.46;71.94;99176.49;1742866;82;25895;-52
2023/04/25 09:24:44;;;;;;;10.33;8.87;;;;;;;12.37;71.39;99176.42;1743172;82;25564;-53
2023/04/25 09:27:13;;;;;;;10.03;8.18;;;;;;;12.24;71.36;99180.57;1742990;82;27455;-54
2023/04/25 09:29:40;;;;;;;;;;;;;;;12.13;71.60;99177.55;1734947;82;25815;-52
2023/04/25 09:32:23;;;;;;;9.18;8.03;;;;;;;12.10;71.81;99191.02;1742869;82;25560;-51
2023/04/25 09:34:55;;;;;;;9.30;8.03;;;;;;;12.07;72.13;99194.41;1742825;82;25556;-50
2023/04/25 09:37:28;;;;;;;10.68;8.03;;;;;;;12.03;72.21;99193.53;1742920;82;25419;-55
2023/04/25 09:39:59;;;;;;;9.03;8.05;;;;;;;11.99;72.20;99198.08;1742855;82;27327;-55
2023/04/25 09:42:28;;;;;;;10.32;8.48;;;;;;;11.96;72.05;99204.96;1742279;81;27106;-56
2023/04/25 09:44:57;;;;;;;9.78;8.78;;;;;;;11.90;72.14;99199.52;1742963;82;25575;-54
2023/04/25 09:47:26;;;;;;;10.68;9.58;;;;;;;11.88;72.34;99205.28;1742862;81;25606;-55
2023/04/25 09:49:53;;;;;;;;;;;;;;;11.86;72.42;99199.42;1745504;82;25545;-54
2023/04/25 09:52:23;;;;;;;14.20;9.90;;;;;;;11.78;72.03;99207.13;1742936;82;27275;-55
2023/04/25 09:54:51;;;;;;;11.25;9.85;;;;;;;11.67;72.06;99209.53;1742920;82;25821;-50
2023/04/25 09:57:22;;;;;;;10.10;8.93;;;;;;;11.59;72.36;99204.48;1742641;81;25434;-49
2023/04/25 09:59:51;;;;;;;14.23;10.23;;;;;;;11.53;72.53;99201.78;1743453;81;25410;-53
2023/04/25 10:02:27;;;;;;;31.33;23.47;;;;;;;11.51;73.19;99197.28;1742723;82;25403;-52
2023/04/25 10:04:55;;;;;;;22.02;15.35;;;;;;;11.55;73.66;99195.45;1741541;82;28370;-54
2023/04/25 10:07:27;;;;;;;12.30;10.83;;;;;;;11.61;73.80;99187.09;1742814;82;25427;-50
2023/04/25 10:10:03;;;;;;;12.90;11.05;;;;;;;11.65;73.78;99194.20;1741980;82;25419;-53
2023/04/25 10:12:31;;;;;;;12.37;10.40;;;;;;;11.72;73.79;99197.67;1742741;82;25564;-54
2023/04/25 10:15:00;;;;;;;12.30;10.38;;;;;;;11.73;74.33;99209.53;1740683;82;25446;-55
2023/04/25 10:17:29;;;;;;;14.73;11.48;;;;;;;11.83;74.94;99210.16;1742834;82;27919;-52
2023/04/25 10:19:56;;;;;;;13.55;11.33;;;;;;;11.87;74.71;99211.08;1742205;82;25460;-54
2023/04/25 10:22:40;;;;;;;12.47;11.10;;;;;;;11.83;73.76;99212.88;1748004;82;25418;-53
2023/04/25 10:25:08;;;;;;;14.75;11.50;;;;;;;11.79;73.86;99215.48;1741514;81;25636;-52
2023/04/25 10:27:36;;;;;;;14.03;11.47;;;;;;;11.80;74.30;99214.91;1740896;82;25586;-52
2023/04/25 10:30:10;;;;;;;16.27;12.35;;;;;;;11.82;74.46;99216.16;1740623;82;27318;-73
2023/04/25 10:32:37;;;;;;;14.38;12.23;;;;;;;11.82;74.30;99220.22;1740427;81;25407;-73
2023/04/25 10:35:19;;;;;;;15.43;12.05;;;;;;;11.78;74.00;99221.48;1744040;81;25554;-73
2023/04/25 10:38:10;;;;;;;16.48;13.05;;;;;;;11.75;74.01;99222.73;1740608;82;25561;-73
2023/04/25 10:40:36;;;;;;;16.80;12.00;;;;;;;11.74;74.53;99216.50;1740664;82;25544;-73
2023/04/25 10:43:44;;;;;;;13.40;11.85;;;;;;;11.77;74.43;99218.53;1744004;82;27281;-74
2023/04/25 10:46:20;;;;;;;16.80;12.28;;;;;;;11.77;74.57;99214.47;1741038;81;25646;-72
2023/04/25 10:48:53;;;;;;;13.90;11.20;;;;;;;11.81;74.70;99217.28;1730057;82;25644;-76
2023/04/25 10:51:26;;;;;;;14.07;12.60;;;;;;;11.84;74.79;99218.53;1743794;82;25386;-75
2023/04/25 10:54:00;;;;;;;13.05;11.68;;;;;;;11.88;75.06;99216.13;1740323;81;25686;-73
2023/04/25 10:56:31;;;;;;;17.05;12.53;;;;;;;11.83;74.42;99216.94;1740538;82;27370;-68
2023/04/25 10:59:12;;;;;;;15.72;12.25;;;;;;;11.75;74.39;99214.03;1739557;81;27180;-74
2023/04/25 11:01:48;;;;;;;15.65;12.35;;;;;;;11.69;74.27;99214.61;1740628;82;25464;-77
2023/04/25 11:04:35;;;;;;;18.00;13.80;;;;;;;11.65;74.55;99212.38;1739296;81;25979;-78
2023/04/25 11:07:36;;;;;;;16.73;13.32;;;;;;;11.64;74.70;99213.49;1740669;81;25482;-75
2023/04/25 11:10:05;;;;;;;18.05;13.28;;;;;;;11.57;74.54;99214.07;1745307;82;27329;-76
2023/04/25 11:12:32;;;;;;;17.45;13.58;;;;;;;11.58;75.26;99219.72;1740868;82;25593;-74
2023/04/25 11:15:05;;;;;;;17.85;14.78;;;;;;;11.59;75.01;99211.80;1740595;82;25576;-72
2023/04/25 11:17:32;;;;;;;17.17;14.30;;;;;;;11.57;75.21;99223.55;1740570;82;25899;-71
2023/04/25 11:20:00;;;;;;;21.82;16.15;;;;;;;11.55;75.16;99220.40;1740638;82;25366;-66
2023/04/25 11:22:28;;;;;;;18.70;15.00;;;;;;;11.52;75.05;99219.14;1741560;82;27380;-66
2023/04/25 11:24:54;;;;;;;18.48;14.40;;;;;;;11.47;74.97;99224.02;1742851;82;25399;-67
2023/04/25 11:27:24;;;;;;;18.95;14.33;;;;;;;11.40;74.90;99225.37;1741826;81;25410;-67
2023/04/25 11:29:50;;;;;;;18.42;14.25;;;;;;;11.39;75.07;99223.00;1743243;82;25428;-68